sensor_id;sensor_type;location;lat;lon;timestamp;temperature;humidity
2112;DHT22;1062;52.538;13.400;2023-05-19T00:00:54;9.10;99.90
2112;DHT22;1062;52.538;13.400;2023-05-19T00:03:20;9.00;99.90
2112;DHT22;1062;52.538;13.400;2023-05-19T00:05:47;9.00;99.90
2112;DHT22;1062;52.538;13.400;2023-05-19T00:08:15;8.90;99.90
2112;DHT22;1062;52.538;13.400;2023-05-19T00:10:42;8.90;99.90
2112;DHT22;1062;52.538;13.400;2023-05-19T00:13:08;8.90;99.90
2112;DHT22;1062;52.538;13.400;2023-05-19T00:15:34;8.90;99.90
2112;DHT22;1062;52.538;13.400;2023-05-19T00:17:59;8.90;99.90
2112;DHT22;1062;52.538;13.400;2023-05-19T00:20:25;8.80;99.90
2112;DHT22;1062;52.538;13.400;2023-05-19T00:22:51;8.80;99.90
2112;DHT22;1062;52.538;13.400;2023-05-19T00:25:16;8.80;99.90
2112;DHT22;1062;52.538;13.400;2023-05-19T00:27:42;8.70;99.90
2112;DHT22;1062;52.538;13.400;2023-05-19T00:30:08;8.70;99.90
2112;DHT22;1062;52.538;13.400;2023-05-19T00:32:34;8.60;99.90
2112;DHT22;1062;52.538;13.400;2023-05-19T00:34:59;8.60;99.90
2112;DHT22;1062;52.538;13.400;2023-05-19T00:37:25;8.60;99.90
2112;DHT22;1062;52.538;13.400;2023-05-19T00:39:51;8.60;99.90
2112;DHT22;1062;52.538;13.400;2023-05-19T00:42:16;8.50;99.90
2112;DHT22;1062;52.538;13.400;2023-05-19T00:44:42;8.50;99.90
2112;DHT22;1062;52.538;13.400;2023-05-19T00:47:08;8.50;99.90
2112;DHT22;1062;52.538;13.400;2023-05-19T00:49:34;8.50;99.90
2112;DHT22;1062;52.538;13.400;2023-05-19T00:52:00;8.50;99.90
2112;DHT22;1062;52.538;13.400;2023-05-19T00:54:27;8.40;99.90
2112;DHT22;1062;52.538;13.400;2023-05-19T00:56:53;8.40;99.90
2112;DHT22;1062;52.538;13.400;2023-05-19T00:59:19;8.40;99.90
2112;DHT22;1062;52.538;13.400;2023-05-19T01:01:45;8.40;99.90
2112;DHT22;1062;52.538;13.400;2023-05-19T01:04:15;8.40;99.90
2112;DHT22;1062;52.538;13.400;2023-05-19T01:06:41;8.50;99.90
2112;DHT22;1062;52.538;13.400;2023-05-19T01:09:08;8.40;99.90
2112;DHT22;1062;52.538;13.400;2023-05-19T01:11:33;8.40;99.90
2112;DHT22;1062;52.538;13.400;2023-05-19T01:13:59;8.30;99.90
2112;DHT22;1062;52.538;13.400;2023-05-19T01:16:35;8.30;99.90
2112;DHT22;1062;52.538;13.400;2023-05-19T01:19:43;8.30;99.90
2112;DHT22;1062;52.538;13.400;2023-05-19T01:22:21;8.20;99.90
2112;DHT22;1062;52.538;13.400;2023-05-19T01:30:52;8.10;99.90
2112;DHT22;1062;52.538;13.400;2023-05-19T01:33:16;8.10;99.90
2112;DHT22;1062;52.538;13.400;2023-05-19T01:35:43;8.10;99.90
2112;DHT22;1062;52.538;13.400;2023-05-19T01:38:11;8.00;99.90
2112;DHT22;1062;52.538;13.400;2023-05-19T01:40:38;8.00;99.90
2112;DHT22;1062;52.538;13.400;2023-05-19T01:43:05;7.90;99.90
2112;DHT22;1062;52.538;13.400;2023-05-19T01:45:32;7.90;99.90
2112;DHT22;1062;52.538;13.400;2023-05-19T01:48:00;7.90;99.90
2112;DHT22;1062;52.538;13.400;2023-05-19T01:50:26;7.90;99.90
2112;DHT22;1062;52.538;13.400;2023-05-19T01:52:52;7.90;99.90
2112;DHT22;1062;52.538;13.400;2023-05-19T01:55:18;7.90;99.90
2112;DHT22;1062;52.538;13.400;2023-05-19T01:58:11;7.90;99.90
2112;DHT22;1062;52.538;13.400;2023-05-19T02:14:29;7.80;99.90
2112;DHT22;1062;52.538;13.400;2023-05-19T02:16:56;7.80;99.90
2112;DHT22;1062;52.538;13.400;2023-05-19T02:19:35;7.70;99.90
2112;DHT22;1062;52.538;13.400;2023-05-19T02:22:01;7.70;99.90
2112;DHT22;1062;52.538;13.400;2023-05-19T02:24:27;7.70;99.90
2112;DHT22;1062;52.538;13.400;2023-05-19T02:26:53;7.70;99.90
2112;DHT22;1062;52.538;13.400;2023-05-19T02:29:19;7.70;99.90
2112;DHT22;1062;52.538;13.400;2023-05-19T02:31:46;7.70;99.90
2112;DHT22;1062;52.538;13.400;2023-05-19T02:34:11;7.60;99.90
2112;DHT22;1062;52.538;13.400;2023-05-19T02:36:39;7.60;99.90
2112;DHT22;1062;52.538;13.400;2023-05-19T02:39:10;7.70;99.90
2112;DHT22;1062;52.538;13.400;2023-05-19T02:41:39;7.70;99.90
2112;DHT22;1062;52.538;13.400;2023-05-19T02:44:05;7.70;99.90
2112;DHT22;1062;52.538;13.400;2023-05-19T02:46:31;7.70;99.90
2112;DHT22;1062;52.538;13.400;2023-05-19T02:48:56;7.70;99.90
2112;DHT22;1062;52.538;13.400;2023-05-19T02:51:22;7.80;99.90
2112;DHT22;1062;52.538;13.400;2023-05-19T02:53:48;7.80;99.90
2112;DHT22;1062;52.538;13.400;2023-05-19T02:56:14;7.80;99.90
2112;DHT22;1062;52.538;13.400;2023-05-19T02:58:40;7.80;99.90
2112;DHT22;1062;52.538;13.400;2023-05-19T03:01:07;7.80;99.90
2112;DHT22;1062;52.538;13.400;2023-05-19T03:03:33;7.80;99.90
2112;DHT22;1062;52.538;13.400;2023-05-19T03:06:02;7.80;99.90
2112;DHT22;1062;52.538;13.400;2023-05-19T03:08:28;7.90;99.90
2112;DHT22;1062;52.538;13.400;2023-05-19T03:10:53;7.90;99.90
2112;DHT22;1062;52.538;13.400;2023-05-19T03:13:19;7.90;99.90
2112;DHT22;1062;52.538;13.400;2023-05-19T03:15:45;7.90;99.90
2112;DHT22;1062;52.538;13.400;2023-05-19T03:18:11;7.90;99.90
2112;DHT22;1062;52.538;13.400;2023-05-19T03:20:37;7.90;99.90
2112;DHT22;1062;52.538;13.400;2023-05-19T03:23:03;7.90;99.90
2112;DHT22;1062;52.538;13.400;2023-05-19T03:25:29;7.90;99.90
2112;DHT22;1062;52.538;13.400;2023-05-19T03:27:55;7.90;99.90
2112;DHT22;1062;52.538;13.400;2023-05-19T03:30:23;7.90;99.90
2112;DHT22;1062;52.538;13.400;2023-05-19T03:32:49;7.90;99.90
2112;DHT22;1062;52.538;13.400;2023-05-19T03:35:16;7.90;99.90
2112;DHT22;1062;52.538;13.400;2023-05-19T03:37:42;7.90;99.90
2112;DHT22;1062;52.538;13.400;2023-05-19T03:40:08;7.90;99.90
2112;DHT22;1062;52.538;13.400;2023-05-19T03:42:33;7.90;99.90
2112;DHT22;1062;52.538;13.400;2023-05-19T03:44:59;8.00;99.90
2112;DHT22;1062;52.538;13.400;2023-05-19T03:47:24;8.00;99.90
2112;DHT22;1062;52.538;13.400;2023-05-19T03:49:50;8.00;99.90
2112;DHT22;1062;52.538;13.400;2023-05-19T03:52:16;8.00;99.90
2112;DHT22;1062;52.538;13.400;2023-05-19T03:54:41;8.10;99.90
2112;DHT22;1062;52.538;13.400;2023-05-19T03:57:08;8.20;99.90
2112;DHT22;1062;52.538;13.400;2023-05-19T03:59:35;8.20;99.90
2112;DHT22;1062;52.538;13.400;2023-05-19T04:02:01;8.20;99.90
2112;DHT22;1062;52.538;13.400;2023-05-19T04:04:27;8.30;99.90
2112;DHT22;1062;52.538;13.400;2023-05-19T04:06:53;8.40;99.90
2112;DHT22;1062;52.538;13.400;2023-05-19T04:09:19;8.40;99.90
2112;DHT22;1062;52.538;13.400;2023-05-19T04:11:44;8.50;99.90
2112;DHT22;1062;52.538;13.400;2023-05-19T04:14:11;8.50;99.90
2112;DHT22;1062;52.538;13.400;2023-05-19T04:16:36;8.70;99.90
2112;DHT22;1062;52.538;13.400;2023-05-19T04:19:02;8.80;99.90
2112;DHT22;1062;52.538;13.400;2023-05-19T04:21:27;9.00;99.90
2112;DHT22;1062;52.538;13.400;2023-05-19T04:23:53;9.10;99.90
2112;DHT22;1062;52.538;13.400;2023-05-19T04:26:19;9.10;99.90
2112;DHT22;1062;52.538;13.400;2023-05-19T04:28:46;9.20;99.90
2112;DHT22;1062;52.538;13.400;2023-05-19T04:31:13;9.40;99.90
2112;DHT22;1062;52.538;13.400;2023-05-19T04:33:39;9.50;99.90
2112;DHT22;1062;52.538;13.400;2023-05-19T04:36:06;9.60;99.90
2112;DHT22;1062;52.538;13.400;2023-05-19T04:38:35;9.60;99.90
2112;DHT22;1062;52.538;13.400;2023-05-19T04:41:07;9.60;99.90
2112;DHT22;1062;52.538;13.400;2023-05-19T04:43:37;9.80;99.90
2112;DHT22;1062;52.538;13.400;2023-05-19T04:46:11;9.90;99.90
2112;DHT22;1062;52.538;13.400;2023-05-19T04:48:37;10.00;99.90
2112;DHT22;1062;52.538;13.400;2023-05-19T04:51:04;10.10;99.90
2112;DHT22;1062;52.538;13.400;2023-05-19T04:53:30;10.20;99.90
2112;DHT22;1062;52.538;13.400;2023-05-19T04:55:57;10.40;99.90
2112;DHT22;1062;52.538;13.400;2023-05-19T04:58:23;10.50;99.90
2112;DHT22;1062;52.538;13.400;2023-05-19T05:00:52;10.70;99.90
2112;DHT22;1062;52.538;13.400;2023-05-19T05:03:20;10.70;99.90
2112;DHT22;1062;52.538;13.400;2023-05-19T05:05:47;11.20;99.90
2112;DHT22;1062;52.538;13.400;2023-05-19T05:08:13;11.40;99.90
2112;DHT22;1062;52.538;13.400;2023-05-19T05:10:40;11.50;99.90
2112;DHT22;1062;52.538;13.400;2023-05-19T05:13:07;12.10;99.90
2112;DHT22;1062;52.538;13.400;2023-05-19T05:15:33;12.50;99.90
2112;DHT22;1062;52.538;13.400;2023-05-19T05:18:00;12.50;99.90
2112;DHT22;1062;52.538;13.400;2023-05-19T05:20:26;13.00;99.90
2112;DHT22;1062;52.538;13.400;2023-05-19T05:22:51;12.90;99.90
2112;DHT22;1062;52.538;13.400;2023-05-19T05:25:18;13.10;99.90
2112;DHT22;1062;52.538;13.400;2023-05-19T05:27:44;13.40;99.90
2112;DHT22;1062;52.538;13.400;2023-05-19T05:30:10;13.50;99.90
2112;DHT22;1062;52.538;13.400;2023-05-19T05:32:36;13.20;99.90
2112;DHT22;1062;52.538;13.400;2023-05-19T05:35:01;13.20;99.90
2112;DHT22;1062;52.538;13.400;2023-05-19T05:37:27;13.00;99.90
2112;DHT22;1062;52.538;13.400;2023-05-19T05:39:53;12.90;99.90
2112;DHT22;1062;52.538;13.400;2023-05-19T05:42:18;13.00;99.90
2112;DHT22;1062;52.538;13.400;2023-05-19T05:44:44;12.90;99.90
2112;DHT22;1062;52.538;13.400;2023-05-19T05:47:10;12.90;99.90
2112;DHT22;1062;52.538;13.400;2023-05-19T05:49:36;13.00;99.90
2112;DHT22;1062;52.538;13.400;2023-05-19T05:52:03;13.00;99.90
2112;DHT22;1062;52.538;13.400;2023-05-19T05:54:29;13.40;99.90
2112;DHT22;1062;52.538;13.400;2023-05-19T05:56:55;13.60;99.90
2112;DHT22;1062;52.538;13.400;2023-05-19T05:59:21;13.90;99.90
2112;DHT22;1062;52.538;13.400;2023-05-19T06:01:47;14.30;99.90
2112;DHT22;1062;52.538;13.400;2023-05-19T06:04:12;14.60;99.90
2112;DHT22;1062;52.538;13.400;2023-05-19T06:06:38;15.00;99.90
2112;DHT22;1062;52.538;13.400;2023-05-19T06:09:04;15.30;99.90
2112;DHT22;1062;52.538;13.400;2023-05-19T06:11:30;15.50;99.90
2112;DHT22;1062;52.538;13.400;2023-05-19T06:13:55;15.60;99.90
2112;DHT22;1062;52.538;13.400;2023-05-19T06:16:21;15.40;99.90
2112;DHT22;1062;52.538;13.400;2023-05-19T06:18:46;15.70;99.90
2112;DHT22;1062;52.538;13.400;2023-05-19T06:21:12;15.80;99.90
2112;DHT22;1062;52.538;13.400;2023-05-19T06:23:42;16.40;99.90
2112;DHT22;1062;52.538;13.400;2023-05-19T06:26:07;17.30;99.90
2112;DHT22;1062;52.538;13.400;2023-05-19T06:28:33;17.30;99.90
2112;DHT22;1062;52.538;13.400;2023-05-19T06:30:59;17.30;99.90
2112;DHT22;1062;52.538;13.400;2023-05-19T06:33:24;17.30;99.90
2112;DHT22;1062;52.538;13.400;2023-05-19T06:35:50;17.50;99.90
2112;DHT22;1062;52.538;13.400;2023-05-19T06:38:16;18.00;99.90
2112;DHT22;1062;52.538;13.400;2023-05-19T06:40:42;18.00;99.90
2112;DHT22;1062;52.538;13.400;2023-05-19T06:43:08;18.30;99.90
2112;DHT22;1062;52.538;13.400;2023-05-19T06:45:33;18.50;99.90
2112;DHT22;1062;52.538;13.400;2023-05-19T06:47:59;18.70;99.90
2112;DHT22;1062;52.538;13.400;2023-05-19T06:50:25;17.60;99.90
2112;DHT22;1062;52.538;13.400;2023-05-19T06:52:51;17.90;99.90
2112;DHT22;1062;52.538;13.400;2023-05-19T06:55:17;18.50;99.90
2112;DHT22;1062;52.538;13.400;2023-05-19T06:57:43;19.10;99.90
2112;DHT22;1062;52.538;13.400;2023-05-19T07:00:09;19.20;98.80
2112;DHT22;1062;52.538;13.400;2023-05-19T07:02:36;19.60;98.90
2112;DHT22;1062;52.538;13.400;2023-05-19T07:05:02;19.40;99.10
2112;DHT22;1062;52.538;13.400;2023-05-19T07:07:28;19.70;98.10
2112;DHT22;1062;52.538;13.400;2023-05-19T07:09:53;19.70;98.40
2112;DHT22;1062;52.538;13.400;2023-05-19T07:12:19;19.30;99.20
2112;DHT22;1062;52.538;13.400;2023-05-19T07:14:45;19.90;98.10
2112;DHT22;1062;52.538;13.400;2023-05-19T07:17:10;20.00;97.40
2112;DHT22;1062;52.538;13.400;2023-05-19T07:19:37;19.50;98.70
2112;DHT22;1062;52.538;13.400;2023-05-19T07:22:02;18.70;99.90
2112;DHT22;1062;52.538;13.400;2023-05-19T07:24:28;19.00;99.30
2112;DHT22;1062;52.538;13.400;2023-05-19T07:26:54;19.00;99.40
2112;DHT22;1062;52.538;13.400;2023-05-19T07:29:20;19.20;99.80
2112;DHT22;1062;52.538;13.400;2023-05-19T07:31:46;19.40;99.60
2112;DHT22;1062;52.538;13.400;2023-05-19T07:34:11;19.40;99.80
2112;DHT22;1062;52.538;13.400;2023-05-19T07:36:37;20.10;98.50
2112;DHT22;1062;52.538;13.400;2023-05-19T07:39:03;20.20;97.90
2112;DHT22;1062;52.538;13.400;2023-05-19T07:41:28;20.40;98.20
2112;DHT22;1062;52.538;13.400;2023-05-19T07:43:54;19.50;99.30
2112;DHT22;1062;52.538;13.400;2023-05-19T07:46:20;20.20;97.90
2112;DHT22;1062;52.538;13.400;2023-05-19T07:48:46;21.70;95.70
2112;DHT22;1062;52.538;13.400;2023-05-19T07:51:12;20.40;96.80
2112;DHT22;1062;52.538;13.400;2023-05-19T07:53:38;20.90;96.80
2112;DHT22;1062;52.538;13.400;2023-05-19T07:56:03;20.80;95.20
2112;DHT22;1062;52.538;13.400;2023-05-19T07:58:29;21.60;95.20
2112;DHT22;1062;52.538;13.400;2023-05-19T08:00:58;21.80;93.60
2112;DHT22;1062;52.538;13.400;2023-05-19T08:03:25;21.90;93.80
2112;DHT22;1062;52.538;13.400;2023-05-19T08:05:51;22.10;93.10
2112;DHT22;1062;52.538;13.400;2023-05-19T08:08:17;22.10;92.20
2112;DHT22;1062;52.538;13.400;2023-05-19T08:10:44;22.30;91.50
2112;DHT22;1062;52.538;13.400;2023-05-19T08:13:10;22.20;91.20
2112;DHT22;1062;52.538;13.400;2023-05-19T08:15:36;22.00;90.90
2112;DHT22;1062;52.538;13.400;2023-05-19T08:18:01;21.90;91.10
2112;DHT22;1062;52.538;13.400;2023-05-19T08:20:27;22.00;90.70
2112;DHT22;1062;52.538;13.400;2023-05-19T08:22:53;22.40;90.60
2112;DHT22;1062;52.538;13.400;2023-05-19T08:25:19;22.20;90.40
2112;DHT22;1062;52.538;13.400;2023-05-19T08:27:45;22.40;90.40
2112;DHT22;1062;52.538;13.400;2023-05-19T08:30:11;22.50;89.70
2112;DHT22;1062;52.538;13.400;2023-05-19T08:32:36;22.70;88.70
2112;DHT22;1062;52.538;13.400;2023-05-19T08:35:02;22.70;88.90
2112;DHT22;1062;52.538;13.400;2023-05-19T08:37:28;22.60;88.60
2112;DHT22;1062;52.538;13.400;2023-05-19T08:39:54;22.70;86.80
2112;DHT22;1062;52.538;13.400;2023-05-19T08:42:19;23.30;86.50
2112;DHT22;1062;52.538;13.400;2023-05-19T08:44:45;22.90;85.50
2112;DHT22;1062;52.538;13.400;2023-05-19T08:47:11;22.30;87.90
2112;DHT22;1062;52.538;13.400;2023-05-19T08:49:46;22.90;86.60
2112;DHT22;1062;52.538;13.400;2023-05-19T08:54:48;22.10;83.50
2112;DHT22;1062;52.538;13.400;2023-05-19T08:57:17;21.30;84.30
2112;DHT22;1062;52.538;13.400;2023-05-19T08:59:44;21.20;85.30
2112;DHT22;1062;52.538;13.400;2023-05-19T09:02:10;20.70;86.10
2112;DHT22;1062;52.538;13.400;2023-05-19T09:04:38;20.60;86.50
2112;DHT22;1062;52.538;13.400;2023-05-19T09:07:05;20.50;87.40
2112;DHT22;1062;52.538;13.400;2023-05-19T09:09:31;20.30;87.60
2112;DHT22;1062;52.538;13.400;2023-05-19T09:11:57;20.30;86.70
2112;DHT22;1062;52.538;13.400;2023-05-19T09:14:22;20.00;87.30
2112;DHT22;1062;52.538;13.400;2023-05-19T09:16:48;20.70;87.10
2112;DHT22;1062;52.538;13.400;2023-05-19T09:19:17;21.10;86.00
2112;DHT22;1062;52.538;13.400;2023-05-19T09:21:42;21.50;83.60
2112;DHT22;1062;52.538;13.400;2023-05-19T09:24:10;21.70;82.10
2112;DHT22;1062;52.538;13.400;2023-05-19T09:26:40;21.20;82.00
2112;DHT22;1062;52.538;13.400;2023-05-19T09:29:15;21.00;83.00
2112;DHT22;1062;52.538;13.400;2023-05-19T09:31:51;21.50;83.10
2112;DHT22;1062;52.538;13.400;2023-05-19T09:34:19;21.40;81.60
2112;DHT22;1062;52.538;13.400;2023-05-19T09:36:46;20.70;82.30
2112;DHT22;1062;52.538;13.400;2023-05-19T09:39:16;20.00;82.40
2112;DHT22;1062;52.538;13.400;2023-05-19T09:41:43;19.50;85.20
2112;DHT22;1062;52.538;13.400;2023-05-19T09:44:20;19.40;83.90
2112;DHT22;1062;52.538;13.400;2023-05-19T09:46:50;19.10;85.90
2112;DHT22;1062;52.538;13.400;2023-05-19T09:49:26;19.10;84.60
2112;DHT22;1062;52.538;13.400;2023-05-19T09:52:02;19.00;85.20
2112;DHT22;1062;52.538;13.400;2023-05-19T09:54:28;18.70;87.30
2112;DHT22;1062;52.538;13.400;2023-05-19T09:57:03;18.40;87.40
2112;DHT22;1062;52.538;13.400;2023-05-19T09:59:29;18.20;88.10
2112;DHT22;1062;52.538;13.400;2023-05-19T10:01:57;18.70;88.20
2112;DHT22;1062;52.538;13.400;2023-05-19T10:04:25;19.10;85.50
2112;DHT22;1062;52.538;13.400;2023-05-19T10:06:57;19.50;86.20
2112;DHT22;1062;52.538;13.400;2023-05-19T10:09:29;19.60;85.40
2112;DHT22;1062;52.538;13.400;2023-05-19T10:11:56;19.40;86.00
2112;DHT22;1062;52.538;13.400;2023-05-19T10:14:27;19.60;85.80
2112;DHT22;1062;52.538;13.400;2023-05-19T10:16:54;19.40;86.70
2112;DHT22;1062;52.538;13.400;2023-05-19T10:19:22;19.10;87.10
2112;DHT22;1062;52.538;13.400;2023-05-19T10:21:51;19.10;87.60
2112;DHT22;1062;52.538;13.400;2023-05-19T10:24:17;18.90;86.70
2112;DHT22;1062;52.538;13.400;2023-05-19T10:26:58;18.80;87.20
2112;DHT22;1062;52.538;13.400;2023-05-19T10:29:27;19.00;86.20
2112;DHT22;1062;52.538;13.400;2023-05-19T10:31:55;18.70;86.30
2112;DHT22;1062;52.538;13.400;2023-05-19T10:39:46;19.10;85.60
2112;DHT22;1062;52.538;13.400;2023-05-19T10:42:17;19.00;83.60
2112;DHT22;1062;52.538;13.400;2023-05-19T10:45:01;18.80;84.60
2112;DHT22;1062;52.538;13.400;2023-05-19T10:47:29;18.80;84.50
2112;DHT22;1062;52.538;13.400;2023-05-19T10:49:59;18.80;84.70
2112;DHT22;1062;52.538;13.400;2023-05-19T10:52:25;18.80;85.20
2112;DHT22;1062;52.538;13.400;2023-05-19T10:54:51;18.70;86.30
2112;DHT22;1062;52.538;13.400;2023-05-19T10:57:27;18.80;85.50
2112;DHT22;1062;52.538;13.400;2023-05-19T10:59:56;18.90;85.20
2112;DHT22;1062;52.538;13.400;2023-05-19T11:02:41;18.70;85.70
2112;DHT22;1062;52.538;13.400;2023-05-19T11:05:10;18.50;85.70
2112;DHT22;1062;52.538;13.400;2023-05-19T11:07:40;18.50;85.90
2112;DHT22;1062;52.538;13.400;2023-05-19T11:10:06;18.50;86.00
2112;DHT22;1062;52.538;13.400;2023-05-19T11:12:40;18.90;86.20
2112;DHT22;1062;52.538;13.400;2023-05-19T11:15:12;18.80;86.50
2112;DHT22;1062;52.538;13.400;2023-05-19T11:17:39;19.00;86.40
2112;DHT22;1062;52.538;13.400;2023-05-19T11:20:07;19.20;85.20
2112;DHT22;1062;52.538;13.400;2023-05-19T11:22:35;19.30;85.40
2112;DHT22;1062;52.538;13.400;2023-05-19T11:25:02;19.10;85.60
2112;DHT22;1062;52.538;13.400;2023-05-19T11:27:34;18.80;85.40
2112;DHT22;1062;52.538;13.400;2023-05-19T11:32:32;19.30;85.10
2112;DHT22;1062;52.538;13.400;2023-05-19T11:34:59;19.50;84.60
2112;DHT22;1062;52.538;13.400;2023-05-19T11:37:25;19.40;84.20
2112;DHT22;1062;52.538;13.400;2023-05-19T11:39:52;19.60;83.80
2112;DHT22;1062;52.538;13.400;2023-05-19T11:42:18;19.50;82.80
2112;DHT22;1062;52.538;13.400;2023-05-19T11:44:45;19.30;83.40
2112;DHT22;1062;52.538;13.400;2023-05-19T11:47:14;19.10;84.20
2112;DHT22;1062;52.538;13.400;2023-05-19T11:49:58;19.10;84.50
2112;DHT22;1062;52.538;13.400;2023-05-19T11:52:25;19.20;85.00
2112;DHT22;1062;52.538;13.400;2023-05-19T11:54:51;19.40;84.60
2112;DHT22;1062;52.538;13.400;2023-05-19T11:57:18;19.40;82.90
2112;DHT22;1062;52.538;13.400;2023-05-19T11:59:43;19.30;81.30
2112;DHT22;1062;52.538;13.400;2023-05-19T12:04:44;19.30;81.50
2112;DHT22;1062;52.538;13.400;2023-05-19T12:07:11;19.50;82.10
2112;DHT22;1062;52.538;13.400;2023-05-19T12:09:38;19.40;81.40
2112;DHT22;1062;52.538;13.400;2023-05-19T12:12:04;19.40;80.70
2112;DHT22;1062;52.538;13.400;2023-05-19T12:14:30;19.30;80.90
2112;DHT22;1062;52.538;13.400;2023-05-19T12:16:56;19.20;80.90
2112;DHT22;1062;52.538;13.400;2023-05-19T12:19:25;19.40;81.90
2112;DHT22;1062;52.538;13.400;2023-05-19T12:21:51;19.40;81.30
2112;DHT22;1062;52.538;13.400;2023-05-19T12:24:18;19.40;80.80
2112;DHT22;1062;52.538;13.400;2023-05-19T12:26:44;19.20;80.20
2112;DHT22;1062;52.538;13.400;2023-05-19T12:29:12;19.30;81.00
2112;DHT22;1062;52.538;13.400;2023-05-19T12:31:38;19.30;80.10
2112;DHT22;1062;52.538;13.400;2023-05-19T12:34:04;19.20;80.20
2112;DHT22;1062;52.538;13.400;2023-05-19T12:36:31;19.40;79.70
2112;DHT22;1062;52.538;13.400;2023-05-19T12:38:56;19.40;80.30
2112;DHT22;1062;52.538;13.400;2023-05-19T12:41:24;19.40;79.90
2112;DHT22;1062;52.538;13.400;2023-05-19T12:43:49;19.20;81.00
2112;DHT22;1062;52.538;13.400;2023-05-19T12:46:17;19.10;80.40
2112;DHT22;1062;52.538;13.400;2023-05-19T12:48:44;19.00;81.00
2112;DHT22;1062;52.538;13.400;2023-05-19T12:51:19;19.10;81.90
2112;DHT22;1062;52.538;13.400;2023-05-19T12:53:45;19.20;82.70
2112;DHT22;1062;52.538;13.400;2023-05-19T12:56:14;19.20;82.10
2112;DHT22;1062;52.538;13.400;2023-05-19T12:58:41;19.00;81.30
2112;DHT22;1062;52.538;13.400;2023-05-19T13:01:15;19.00;81.60
2112;DHT22;1062;52.538;13.400;2023-05-19T13:03:41;19.00;82.30
2112;DHT22;1062;52.538;13.400;2023-05-19T13:06:07;18.90;82.50
2112;DHT22;1062;52.538;13.400;2023-05-19T13:08:34;18.90;82.90
2112;DHT22;1062;52.538;13.400;2023-05-19T13:10:59;18.90;84.20
2112;DHT22;1062;52.538;13.400;2023-05-19T13:13:25;19.30;84.20
2112;DHT22;1062;52.538;13.400;2023-05-19T13:15:51;19.80;82.00
2112;DHT22;1062;52.538;13.400;2023-05-19T13:18:18;19.30;80.70
2112;DHT22;1062;52.538;13.400;2023-05-19T13:20:44;19.20;81.90
2112;DHT22;1062;52.538;13.400;2023-05-19T13:23:12;19.10;82.30
2112;DHT22;1062;52.538;13.400;2023-05-19T13:25:38;18.90;81.40
2112;DHT22;1062;52.538;13.400;2023-05-19T13:28:04;18.80;81.40
2112;DHT22;1062;52.538;13.400;2023-05-19T13:30:34;19.00;82.10
2112;DHT22;1062;52.538;13.400;2023-05-19T13:33:01;19.20;82.60
2112;DHT22;1062;52.538;13.400;2023-05-19T13:35:26;19.20;83.60
2112;DHT22;1062;52.538;13.400;2023-05-19T13:37:52;19.10;84.90
2112;DHT22;1062;52.538;13.400;2023-05-19T13:40:18;19.20;84.80
2112;DHT22;1062;52.538;13.400;2023-05-19T13:42:44;19.10;84.90
2112;DHT22;1062;52.538;13.400;2023-05-19T13:45:10;19.00;85.70
2112;DHT22;1062;52.538;13.400;2023-05-19T13:47:37;19.00;85.70
2112;DHT22;1062;52.538;13.400;2023-05-19T13:50:04;18.90;85.50
2112;DHT22;1062;52.538;13.400;2023-05-19T13:52:30;19.00;85.70
2112;DHT22;1062;52.538;13.400;2023-05-19T13:54:56;18.80;85.10
2112;DHT22;1062;52.538;13.400;2023-05-19T13:57:24;18.70;86.10
2112;DHT22;1062;52.538;13.400;2023-05-19T13:59:51;18.80;86.10
2112;DHT22;1062;52.538;13.400;2023-05-19T14:02:17;18.90;86.30
2112;DHT22;1062;52.538;13.400;2023-05-19T14:04:42;18.80;86.50
2112;DHT22;1062;52.538;13.400;2023-05-19T14:07:08;18.80;87.80
2112;DHT22;1062;52.538;13.400;2023-05-19T14:09:35;18.80;87.60
2112;DHT22;1062;52.538;13.400;2023-05-19T14:12:01;18.80;88.00
2112;DHT22;1062;52.538;13.400;2023-05-19T14:14:27;18.90;88.30
2112;DHT22;1062;52.538;13.400;2023-05-19T14:16:52;18.90;87.90
2112;DHT22;1062;52.538;13.400;2023-05-19T14:19:18;18.70;88.50
2112;DHT22;1062;52.538;13.400;2023-05-19T14:21:43;18.50;89.00
2112;DHT22;1062;52.538;13.400;2023-05-19T14:24:09;18.40;89.70
2112;DHT22;1062;52.538;13.400;2023-05-19T14:26:35;18.40;89.70
2112;DHT22;1062;52.538;13.400;2023-05-19T14:29:00;18.50;90.00
2112;DHT22;1062;52.538;13.400;2023-05-19T14:31:26;18.50;88.20
2112;DHT22;1062;52.538;13.400;2023-05-19T14:33:51;18.50;88.10
2112;DHT22;1062;52.538;13.400;2023-05-19T14:36:17;18.80;88.30
2112;DHT22;1062;52.538;13.400;2023-05-19T14:38:43;18.90;87.60
2112;DHT22;1062;52.538;13.400;2023-05-19T14:41:09;19.00;87.70
2112;DHT22;1062;52.538;13.400;2023-05-19T14:43:34;19.20;87.80
2112;DHT22;1062;52.538;13.400;2023-05-19T14:46:00;19.50;88.00
2112;DHT22;1062;52.538;13.400;2023-05-19T14:48:26;19.40;88.90
2112;DHT22;1062;52.538;13.400;2023-05-19T14:50:52;19.30;88.40
2112;DHT22;1062;52.538;13.400;2023-05-19T14:53:17;19.10;89.30
2112;DHT22;1062;52.538;13.400;2023-05-19T14:55:43;18.90;89.80
2112;DHT22;1062;52.538;13.400;2023-05-19T14:58:09;18.70;90.30
2112;DHT22;1062;52.538;13.400;2023-05-19T15:00:34;18.70;90.10
2112;DHT22;1062;52.538;13.400;2023-05-19T15:03:00;18.90;90.00
2112;DHT22;1062;52.538;13.400;2023-05-19T15:05:25;18.90;89.90
2112;DHT22;1062;52.538;13.400;2023-05-19T15:07:51;18.70;88.90
2112;DHT22;1062;52.538;13.400;2023-05-19T15:10:17;18.70;89.00
2112;DHT22;1062;52.538;13.400;2023-05-19T15:12:45;18.60;88.80
2112;DHT22;1062;52.538;13.400;2023-05-19T15:15:11;18.40;88.80
2112;DHT22;1062;52.538;13.400;2023-05-19T15:17:36;18.40;88.80
2112;DHT22;1062;52.538;13.400;2023-05-19T15:20:02;18.30;88.90
2112;DHT22;1062;52.538;13.400;2023-05-19T15:22:28;18.30;89.10
2112;DHT22;1062;52.538;13.400;2023-05-19T15:24:54;18.30;88.60
2112;DHT22;1062;52.538;13.400;2023-05-19T15:27:19;18.30;89.00
2112;DHT22;1062;52.538;13.400;2023-05-19T15:29:45;18.10;89.20
2112;DHT22;1062;52.538;13.400;2023-05-19T15:32:11;18.00;89.60
2112;DHT22;1062;52.538;13.400;2023-05-19T15:34:36;17.90;90.00
2112;DHT22;1062;52.538;13.400;2023-05-19T15:37:02;17.80;90.00
2112;DHT22;1062;52.538;13.400;2023-05-19T15:39:29;17.70;90.30
2112;DHT22;1062;52.538;13.400;2023-05-19T15:41:54;17.70;90.30
2112;DHT22;1062;52.538;13.400;2023-05-19T15:44:20;17.80;90.50
2112;DHT22;1062;52.538;13.400;2023-05-19T15:46:46;18.00;90.10
2112;DHT22;1062;52.538;13.400;2023-05-19T15:49:11;18.10;89.20
2112;DHT22;1062;52.538;13.400;2023-05-19T15:51:37;18.00;88.60
2112;DHT22;1062;52.538;13.400;2023-05-19T15:54:02;18.00;88.70
2112;DHT22;1062;52.538;13.400;2023-05-19T15:56:28;17.90;89.00
2112;DHT22;1062;52.538;13.400;2023-05-19T15:58:54;17.90;89.60
2112;DHT22;1062;52.538;13.400;2023-05-19T16:01:19;17.80;90.30
2112;DHT22;1062;52.538;13.400;2023-05-19T16:03:46;17.80;90.50
2112;DHT22;1062;52.538;13.400;2023-05-19T16:06:11;17.90;90.80
2112;DHT22;1062;52.538;13.400;2023-05-19T16:08:37;18.00;90.40
2112;DHT22;1062;52.538;13.400;2023-05-19T16:11:03;17.90;90.00
2112;DHT22;1062;52.538;13.400;2023-05-19T16:13:29;17.90;89.80
2112;DHT22;1062;52.538;13.400;2023-05-19T16:15:55;17.90;90.00
2112;DHT22;1062;52.538;13.400;2023-05-19T16:18:21;17.90;89.30
2112;DHT22;1062;52.538;13.400;2023-05-19T16:20:49;17.90;89.00